x

Central Dixon Entrance Buoy (46145) Wave Buoy

11:00pm - Tue 23rd May 2017 All times are PDT. -7 hours from GMT.

  • Sig Wave height 10.5ft
  • Peak Period 7s
  • Wind
    31mph, 40mph gusts
  • Sea Temp 47°f
  • Air Temp 48°f
  • Sea Pressure 1019.5mb
  • Central Dixon Entrance Buoy
  • Central Dixon Entrance Buoy

More Historic Weather Station data

Upgrade to MSW Pro to gain access to the past 30 days of data for over 8000 Wavebouys and Weather Stations around the globe.

Join Pro

Comparision Forecast

View Surf forecast
   
Tue 05/23 11:00pm 10.5ft 7s 31 40 mph 1019.5mb 47f 48f
10:00pm 10ft 7s 31 40 mph 1018.7mb 47f 48f
9:00pm 10ft 7s 31 38 mph 1017.8mb 47f 48f
8:00pm 8ft 6s 27 34 mph 1017.6mb 47f 48f
7:00pm 7.5ft 6s 29 36 mph 1016.8mb 47f 48f
6:00pm 6ft 6s 29 36 mph 1015.9mb 48f 48f
5:00pm 5ft 6s 27 34 mph 1015.6mb 48f 48f
4:00pm 4ft 5s 25 31 mph 1014.6mb 48f 49f
3:00pm 3.5ft 5s 22 27 mph 1013.6mb 48f 48f
2:00pm 3.5ft 5s 22 27 mph 1012.6mb 48f 48f
1:00pm 4ft 12s 22 27 mph 1011.5mb 48f 48f
12:00pm 3.5ft 11s 22 25 mph 1010.5mb 48f 47f
11:00am 4ft 12s 22 27 mph 1009.9mb 48f 47f
10:00am 4ft 12s 18 25 mph 1009.5mb 48f 47f
9:00am 4ft 11s 18 20 mph 1009.5mb 48f 47f
8:00am 4ft 12s 18 22 mph 1009.4mb 48f 47f
7:00am 4ft 12s 16 18 mph 1009.3mb 48f 48f
6:00am 3.5ft 12s 9 16 mph 1009.4mb 48f 49f
5:00am 3.5ft 13s 4 4 mph 1010mb 48f 49f
4:00am 3ft 12s 4 7 mph 1010.4mb 48f 49f
3:00am 2.5ft 11s 7 9 mph 1011.1mb 49f 49f
2:00am 2.5ft 12s 4 4 mph 1011.8mb 49f 49f
1:00am 2.5ft 13s 2 2 mph 1012.6mb 49f 49f
12:00am 3ft 12s 4 4 mph 1013.2mb 50f 49f
Mon 05/22 11:00pm 3ft 12s 2 4 mph 1013.5mb 49f 49f
10:00pm 3ft 12s 2 4 mph 1014.1mb 49f 49f
9:00pm 3ft 13s 4 7 mph 1014.9mb 49f 49f
8:00pm 3.5ft 12s 7 9 mph 1015.4mb 49f 49f
7:00pm 3.5ft 14s 9 11 mph 1016.1mb 49f 49f
6:00pm 3.5ft 12s 9 11 mph 1016.7mb 49f 49f
5:00pm 2.5ft 12s 9 11 mph 1017.1mb 50f 49f
4:00pm 3ft 12s 9 11 mph 1017.8mb 49f 49f
3:00pm 2.5ft 12s 9 11 mph 1018.3mb 50f 49f
2:00pm 3ft 12s 9 9 mph 1018.3mb 50f 50f
1:00pm 2.5ft 12s 7 9 mph 1018.4mb 50f 49f
12:00pm 2.5ft 12s 2 2 mph 1018.5mb 50f 50f
11:00am 2.5ft 9s 7 9 mph 1017.9mb 50f 50f
10:00am 2.5ft 10s 4 7 mph 1018.8mb 50f 50f
9:00am 3ft 9s 4 4 mph 1019mb 50f 50f
8:00am 3.5ft 9s 7 7 mph 1019.3mb 49f 50f
7:00am 3.5ft 9s 4 7 mph 1019.8mb 49f 50f
6:00am 3.5ft 9s 4 7 mph 1019.9mb 49f 50f
5:00am 2.5ft 10s 4 7 mph 1020.3mb 49f 50f
4:00am 3ft 11s 9 11 mph 1020.7mb 49f 50f
3:00am 3.5ft 11s 4 7 mph 1021.1mb 50f 50f
2:00am 3.5ft 11s 4 7 mph 1021.4mb 50f 50f
1:00am 3ft 10s 7 7 mph 1021.5mb 49f 50f
12:00am 3.5ft 10s 11 13 mph 1021.8mb 49f 50f
Sun 05/21 11:00pm 3.5ft 10s 11 13 mph 1021.8mb 49f 50f
10:00pm 3ft 10s 4 7 mph 1022mb 49f 50f
9:00pm 3ft 10s 4 9 mph 1021.8mb 49f 50f
8:00pm 3.5ft 10s 7 9 mph 1021.9mb 49f 51f
7:00pm 4.5ft 10s 2 2 mph 1022mb 50f 50f
6:00pm 4.5ft 5s 9 9 mph 1021.5mb 50f 51f
5:00pm 4.5ft 6s 16 18 mph 1020.8mb 50f 51f
4:00pm 4.5ft 6s 16 18 mph 1021.2mb 50f 52f
3:00pm 4.5ft 6s 18 22 mph 1020.7mb 49f 52f
2:00pm 4.5ft 5s 18 20 mph 1020.2mb 49f 51f
1:00pm 4.5ft 5s 20 25 mph 1019.7mb 48f 52f
12:00pm 5ft 5s 22 25 mph 1019.1mb 48f 51f
11:00am 4.5ft 5s 22 29 mph 1018.5mb 49f 51f
10:00am 4ft 5s 20 25 mph 1018.6mb 49f 51f
9:00am 3.5ft 5s 20 25 mph 1018.6mb 49f 51f
8:00am 3.5ft 5s 22 25 mph 1018.6mb 49f 51f
7:00am 4ft 5s 20 25 mph 1018.8mb 49f 51f
6:00am 3.5ft 5s 18 22 mph 1019mb 49f 51f
5:00am 3.5ft 5s 20 25 mph 1018.8mb 49f 51f
4:00am 3.5ft 4s 18 20 mph 1019mb 49f 51f
3:00am 4.5ft 5s 18 22 mph 1018.7mb 49f 52f
2:00am 4.5ft 5s 20 25 mph 1018.4mb 48f 51f
1:00am 4ft 5s 22 25 mph 1018.2mb 48f 51f
12:00am 3.5ft 5s 18 22 mph 1018.4mb 49f 51f
Sat 05/20 11:00pm 3.5ft 5s 18 22 mph 1018.4mb 49f 52f
10:00pm 3.5ft 5s 13 18 mph 1018.6mb 48f 51f
9:00pm 3.5ft 5s 18 20 mph 1018.1mb 48f 51f
8:00pm 3.5ft 5s 22 27 mph 1017.5mb 49f 52f
7:00pm 3.5ft 5s 20 22 mph 1018mb 49f 52f
6:00pm 3ft 5s 18 20 mph 1018.2mb 49f 53f
5:00pm 3.5ft 5s 18 22 mph 1018.6mb 49f 53f
4:00pm 3.5ft 5s 18 20 mph 1019mb 49f 53f
3:00pm 4ft 4s 20 25 mph 1018.9mb 49f 53f
2:00pm 3.5ft 10s 20 25 mph 1019mb 50f 53f
1:00pm 3ft 10s 20 25 mph 1019mb 50f 53f
12:00pm 3ft 10s 18 22 mph 1019.6mb 49f 52f
11:00am 2.5ft 9s 18 22 mph 1019.8mb 49f 51f
10:00am 2.5ft 10s 13 16 mph 1020.5mb 49f 51f
9:00am 2.5ft 11s 11 13 mph 1020.6mb 49f 50f
8:00am 2.5ft 10s 11 13 mph 1021.3mb 50f 50f